sensor_id;sensor_type;location;lat;lon;timestamp;temperature;humidity
23114;DHT22;11726;50.122;8.832;2023-12-04T00:01:47;-1.00;99.90
23114;DHT22;11726;50.122;8.832;2023-12-04T00:04:13;-1.00;99.90
23114;DHT22;11726;50.122;8.832;2023-12-04T00:06:41;-1.00;99.90
23114;DHT22;11726;50.122;8.832;2023-12-04T00:09:08;-1.00;99.90
23114;DHT22;11726;50.122;8.832;2023-12-04T00:11:35;-1.00;99.90
23114;DHT22;11726;50.122;8.832;2023-12-04T00:14:01;-1.00;99.90
23114;DHT22;11726;50.122;8.832;2023-12-04T00:16:28;-0.90;99.90
23114;DHT22;11726;50.122;8.832;2023-12-04T00:18:55;-1.00;99.90
23114;DHT22;11726;50.122;8.832;2023-12-04T00:21:22;-1.00;99.90
23114;DHT22;11726;50.122;8.832;2023-12-04T00:23:48;-1.00;99.90
23114;DHT22;11726;50.122;8.832;2023-12-04T00:26:15;-1.00;99.90
23114;DHT22;11726;50.122;8.832;2023-12-04T00:28:42;-0.90;99.90
23114;DHT22;11726;50.122;8.832;2023-12-04T00:31:09;-0.90;99.90
23114;DHT22;11726;50.122;8.832;2023-12-04T00:33:37;-1.00;99.90
23114;DHT22;11726;50.122;8.832;2023-12-04T00:36:04;-1.00;99.90
23114;DHT22;11726;50.122;8.832;2023-12-04T00:38:31;-1.00;99.90
23114;DHT22;11726;50.122;8.832;2023-12-04T00:40:57;-1.00;99.90
23114;DHT22;11726;50.122;8.832;2023-12-04T00:43:24;-1.10;99.90
23114;DHT22;11726;50.122;8.832;2023-12-04T00:45:51;-1.00;99.90
23114;DHT22;11726;50.122;8.832;2023-12-04T00:48:18;-1.10;99.90
23114;DHT22;11726;50.122;8.832;2023-12-04T00:50:45;-1.10;99.90
23114;DHT22;11726;50.122;8.832;2023-12-04T00:53:11;-1.10;99.90
23114;DHT22;11726;50.122;8.832;2023-12-04T00:55:38;-1.20;99.90
23114;DHT22;11726;50.122;8.832;2023-12-04T00:58:04;-1.30;99.90
23114;DHT22;11726;50.122;8.832;2023-12-04T01:00:32;-1.30;99.90
23114;DHT22;11726;50.122;8.832;2023-12-04T01:02:59;-1.30;99.90
23114;DHT22;11726;50.122;8.832;2023-12-04T01:05:25;-1.30;99.90
23114;DHT22;11726;50.122;8.832;2023-12-04T01:07:52;-1.30;99.90
23114;DHT22;11726;50.122;8.832;2023-12-04T01:10:19;-1.30;99.90
23114;DHT22;11726;50.122;8.832;2023-12-04T01:12:46;-1.40;99.90
23114;DHT22;11726;50.122;8.832;2023-12-04T01:15:13;-1.40;99.90
23114;DHT22;11726;50.122;8.832;2023-12-04T01:17:40;-1.40;99.90
23114;DHT22;11726;50.122;8.832;2023-12-04T01:20:07;-1.40;99.90
23114;DHT22;11726;50.122;8.832;2023-12-04T01:22:34;-1.50;99.90
23114;DHT22;11726;50.122;8.832;2023-12-04T01:25:01;-1.50;99.90
23114;DHT22;11726;50.122;8.832;2023-12-04T01:27:29;-1.50;99.90
23114;DHT22;11726;50.122;8.832;2023-12-04T01:29:56;-1.50;99.90
23114;DHT22;11726;50.122;8.832;2023-12-04T01:32:23;-1.60;99.90
23114;DHT22;11726;50.122;8.832;2023-12-04T01:34:50;-1.60;99.90
23114;DHT22;11726;50.122;8.832;2023-12-04T01:37:16;-1.50;99.90
23114;DHT22;11726;50.122;8.832;2023-12-04T01:39:43;-1.50;99.90
23114;DHT22;11726;50.122;8.832;2023-12-04T01:42:10;-1.50;99.90
23114;DHT22;11726;50.122;8.832;2023-12-04T01:44:37;-1.60;99.90
23114;DHT22;11726;50.122;8.832;2023-12-04T01:47:04;-1.60;99.90
23114;DHT22;11726;50.122;8.832;2023-12-04T01:49:31;-1.60;99.90
23114;DHT22;11726;50.122;8.832;2023-12-04T01:51:58;-1.70;99.90
23114;DHT22;11726;50.122;8.832;2023-12-04T01:54:25;-1.70;99.90
23114;DHT22;11726;50.122;8.832;2023-12-04T01:56:52;-1.70;99.90
23114;DHT22;11726;50.122;8.832;2023-12-04T01:59:18;-1.70;99.90
23114;DHT22;11726;50.122;8.832;2023-12-04T02:01:45;-1.60;99.90
23114;DHT22;11726;50.122;8.832;2023-12-04T02:04:12;-1.70;99.90
23114;DHT22;11726;50.122;8.832;2023-12-04T02:06:40;-1.70;99.90
23114;DHT22;11726;50.122;8.832;2023-12-04T02:09:07;-1.70;99.90
23114;DHT22;11726;50.122;8.832;2023-12-04T02:11:38;-1.70;99.90
23114;DHT22;11726;50.122;8.832;2023-12-04T02:14:06;-1.70;99.90
23114;DHT22;11726;50.122;8.832;2023-12-04T02:16:36;-1.70;99.90
23114;DHT22;11726;50.122;8.832;2023-12-04T02:19:07;-1.70;99.90
23114;DHT22;11726;50.122;8.832;2023-12-04T02:21:33;-1.70;99.90
23114;DHT22;11726;50.122;8.832;2023-12-04T02:24:00;-1.80;99.90
23114;DHT22;11726;50.122;8.832;2023-12-04T02:26:34;-1.80;99.90
23114;DHT22;11726;50.122;8.832;2023-12-04T02:29:07;-1.70;99.90
23114;DHT22;11726;50.122;8.832;2023-12-04T02:31:39;-1.80;99.90
23114;DHT22;11726;50.122;8.832;2023-12-04T02:34:07;-1.80;99.90
23114;DHT22;11726;50.122;8.832;2023-12-04T02:36:36;-1.70;99.90
23114;DHT22;11726;50.122;8.832;2023-12-04T02:39:04;-1.60;99.90
23114;DHT22;11726;50.122;8.832;2023-12-04T02:41:31;-1.70;99.90
23114;DHT22;11726;50.122;8.832;2023-12-04T02:43:57;-1.80;99.90
23114;DHT22;11726;50.122;8.832;2023-12-04T02:46:24;-1.80;99.90
23114;DHT22;11726;50.122;8.832;2023-12-04T02:48:51;-1.80;99.90
23114;DHT22;11726;50.122;8.832;2023-12-04T02:51:17;-1.80;99.90
23114;DHT22;11726;50.122;8.832;2023-12-04T02:53:44;-1.80;99.90
23114;DHT22;11726;50.122;8.832;2023-12-04T02:56:11;-1.90;99.90
23114;DHT22;11726;50.122;8.832;2023-12-04T02:58:37;-1.90;99.90
23114;DHT22;11726;50.122;8.832;2023-12-04T03:01:04;-1.80;99.90
23114;DHT22;11726;50.122;8.832;2023-12-04T03:03:31;-1.80;99.90
23114;DHT22;11726;50.122;8.832;2023-12-04T03:05:58;-1.80;99.90
23114;DHT22;11726;50.122;8.832;2023-12-04T03:08:25;-1.90;99.90
23114;DHT22;11726;50.122;8.832;2023-12-04T03:10:51;-1.90;99.90
23114;DHT22;11726;50.122;8.832;2023-12-04T03:13:18;-1.80;99.90
23114;DHT22;11726;50.122;8.832;2023-12-04T03:15:45;-1.70;99.90
23114;DHT22;11726;50.122;8.832;2023-12-04T03:18:11;-1.80;99.90
23114;DHT22;11726;50.122;8.832;2023-12-04T03:20:38;-1.80;99.90
23114;DHT22;11726;50.122;8.832;2023-12-04T03:23:05;-1.70;99.90
23114;DHT22;11726;50.122;8.832;2023-12-04T03:25:32;-1.80;99.90
23114;DHT22;11726;50.122;8.832;2023-12-04T03:27:59;-1.80;99.90
23114;DHT22;11726;50.122;8.832;2023-12-04T03:30:26;-1.80;99.90
23114;DHT22;11726;50.122;8.832;2023-12-04T03:32:53;-1.80;99.90
23114;DHT22;11726;50.122;8.832;2023-12-04T03:35:20;-1.70;99.90
23114;DHT22;11726;50.122;8.832;2023-12-04T03:37:46;-1.80;99.90
23114;DHT22;11726;50.122;8.832;2023-12-04T03:40:13;-1.80;99.90
23114;DHT22;11726;50.122;8.832;2023-12-04T03:42:40;-1.80;99.90
23114;DHT22;11726;50.122;8.832;2023-12-04T03:45:07;-1.80;99.90
23114;DHT22;11726;50.122;8.832;2023-12-04T03:47:34;-1.80;99.90
23114;DHT22;11726;50.122;8.832;2023-12-04T03:50:01;-1.80;99.90
23114;DHT22;11726;50.122;8.832;2023-12-04T03:52:27;-1.70;99.90
23114;DHT22;11726;50.122;8.832;2023-12-04T03:54:54;-1.80;99.90
23114;DHT22;11726;50.122;8.832;2023-12-04T03:57:21;-1.80;99.90
23114;DHT22;11726;50.122;8.832;2023-12-04T03:59:47;-1.90;99.90
23114;DHT22;11726;50.122;8.832;2023-12-04T04:02:14;-1.90;99.90
23114;DHT22;11726;50.122;8.832;2023-12-04T04:04:41;-1.90;99.90
23114;DHT22;11726;50.122;8.832;2023-12-04T04:07:08;-1.90;99.90
23114;DHT22;11726;50.122;8.832;2023-12-04T04:09:35;-2.00;99.90
23114;DHT22;11726;50.122;8.832;2023-12-04T04:12:01;-1.90;99.90
23114;DHT22;11726;50.122;8.832;2023-12-04T04:14:28;-1.90;99.90
23114;DHT22;11726;50.122;8.832;2023-12-04T04:16:55;-1.90;99.90
23114;DHT22;11726;50.122;8.832;2023-12-04T04:19:21;-1.90;99.90
23114;DHT22;11726;50.122;8.832;2023-12-04T04:21:48;-1.90;99.90
23114;DHT22;11726;50.122;8.832;2023-12-04T04:24:15;-1.80;99.90
23114;DHT22;11726;50.122;8.832;2023-12-04T04:26:41;-1.80;99.90
23114;DHT22;11726;50.122;8.832;2023-12-04T04:29:08;-1.80;99.90
23114;DHT22;11726;50.122;8.832;2023-12-04T04:31:36;-1.90;99.90
23114;DHT22;11726;50.122;8.832;2023-12-04T04:34:03;-1.80;99.90
23114;DHT22;11726;50.122;8.832;2023-12-04T04:36:30;-1.80;99.90
23114;DHT22;11726;50.122;8.832;2023-12-04T04:38:57;-1.80;99.90
23114;DHT22;11726;50.122;8.832;2023-12-04T04:41:23;-1.80;99.90
23114;DHT22;11726;50.122;8.832;2023-12-04T04:43:50;-1.70;99.90
23114;DHT22;11726;50.122;8.832;2023-12-04T04:46:17;-1.80;99.90
23114;DHT22;11726;50.122;8.832;2023-12-04T04:48:43;-1.70;99.90
23114;DHT22;11726;50.122;8.832;2023-12-04T04:51:10;-1.70;99.90
23114;DHT22;11726;50.122;8.832;2023-12-04T04:53:37;-1.80;99.90
23114;DHT22;11726;50.122;8.832;2023-12-04T04:56:04;-1.80;99.90
23114;DHT22;11726;50.122;8.832;2023-12-04T04:58:31;-1.80;99.90
23114;DHT22;11726;50.122;8.832;2023-12-04T05:00:58;-1.80;99.90
23114;DHT22;11726;50.122;8.832;2023-12-04T05:03:25;-1.80;99.90
23114;DHT22;11726;50.122;8.832;2023-12-04T05:05:51;-1.80;99.90
23114;DHT22;11726;50.122;8.832;2023-12-04T05:08:18;-1.80;99.90
23114;DHT22;11726;50.122;8.832;2023-12-04T05:10:45;-1.80;99.90
23114;DHT22;11726;50.122;8.832;2023-12-04T05:13:12;-1.80;99.90
23114;DHT22;11726;50.122;8.832;2023-12-04T05:15:38;-1.80;99.90
23114;DHT22;11726;50.122;8.832;2023-12-04T05:18:05;-1.80;99.90
23114;DHT22;11726;50.122;8.832;2023-12-04T05:20:32;-1.80;99.90
23114;DHT22;11726;50.122;8.832;2023-12-04T05:22:59;-1.80;99.90
23114;DHT22;11726;50.122;8.832;2023-12-04T05:25:25;-1.80;99.90
23114;DHT22;11726;50.122;8.832;2023-12-04T05:27:59;-1.80;99.90
23114;DHT22;11726;50.122;8.832;2023-12-04T05:30:26;-1.70;99.90
23114;DHT22;11726;50.122;8.832;2023-12-04T05:32:53;-1.70;99.90
23114;DHT22;11726;50.122;8.832;2023-12-04T05:35:21;-1.70;99.90
23114;DHT22;11726;50.122;8.832;2023-12-04T05:37:47;-1.80;99.90
23114;DHT22;11726;50.122;8.832;2023-12-04T05:40:14;-1.80;99.90
23114;DHT22;11726;50.122;8.832;2023-12-04T05:42:41;-1.80;99.90
23114;DHT22;11726;50.122;8.832;2023-12-04T05:45:08;-1.90;99.90
23114;DHT22;11726;50.122;8.832;2023-12-04T05:47:35;-1.80;99.90
23114;DHT22;11726;50.122;8.832;2023-12-04T05:50:02;-1.80;99.90
23114;DHT22;11726;50.122;8.832;2023-12-04T05:52:28;-1.90;99.90
23114;DHT22;11726;50.122;8.832;2023-12-04T05:54:55;-1.90;99.90
23114;DHT22;11726;50.122;8.832;2023-12-04T05:57:23;-1.90;99.90
23114;DHT22;11726;50.122;8.832;2023-12-04T05:59:49;-1.90;99.90
23114;DHT22;11726;50.122;8.832;2023-12-04T06:02:16;-1.90;99.90
23114;DHT22;11726;50.122;8.832;2023-12-04T06:04:43;-1.90;99.90
23114;DHT22;11726;50.122;8.832;2023-12-04T06:07:09;-1.80;99.90
23114;DHT22;11726;50.122;8.832;2023-12-04T06:09:36;-1.80;99.90
23114;DHT22;11726;50.122;8.832;2023-12-04T06:12:03;-1.80;99.90
23114;DHT22;11726;50.122;8.832;2023-12-04T06:14:34;-1.80;99.90
23114;DHT22;11726;50.122;8.832;2023-12-04T06:17:01;-1.90;99.90
23114;DHT22;11726;50.122;8.832;2023-12-04T06:19:28;-1.90;99.90
23114;DHT22;11726;50.122;8.832;2023-12-04T06:21:56;-1.90;99.90
23114;DHT22;11726;50.122;8.832;2023-12-04T06:24:23;-1.90;99.90
23114;DHT22;11726;50.122;8.832;2023-12-04T06:26:50;-1.90;99.90
23114;DHT22;11726;50.122;8.832;2023-12-04T06:29:18;-1.90;99.90
23114;DHT22;11726;50.122;8.832;2023-12-04T06:31:46;-2.00;99.90
23114;DHT22;11726;50.122;8.832;2023-12-04T06:34:13;-2.00;99.90
23114;DHT22;11726;50.122;8.832;2023-12-04T06:36:40;-2.10;99.90
23114;DHT22;11726;50.122;8.832;2023-12-04T06:39:10;-2.00;99.90
23114;DHT22;11726;50.122;8.832;2023-12-04T06:41:39;-2.00;99.90
23114;DHT22;11726;50.122;8.832;2023-12-04T06:44:06;-2.00;99.90
23114;DHT22;11726;50.122;8.832;2023-12-04T06:46:37;-2.00;99.90
23114;DHT22;11726;50.122;8.832;2023-12-04T06:49:05;-2.00;99.90
23114;DHT22;11726;50.122;8.832;2023-12-04T06:51:33;-2.00;99.90
23114;DHT22;11726;50.122;8.832;2023-12-04T06:54:00;-1.90;99.90
23114;DHT22;11726;50.122;8.832;2023-12-04T06:56:26;-1.90;99.90
23114;DHT22;11726;50.122;8.832;2023-12-04T06:58:53;-1.80;99.90
23114;DHT22;11726;50.122;8.832;2023-12-04T07:01:20;-1.80;99.90
23114;DHT22;11726;50.122;8.832;2023-12-04T07:03:48;-1.80;99.90
23114;DHT22;11726;50.122;8.832;2023-12-04T07:06:15;-1.80;99.90
23114;DHT22;11726;50.122;8.832;2023-12-04T07:08:41;-1.90;99.90
23114;DHT22;11726;50.122;8.832;2023-12-04T07:11:08;-1.90;99.90
23114;DHT22;11726;50.122;8.832;2023-12-04T07:13:35;-1.90;99.90
23114;DHT22;11726;50.122;8.832;2023-12-04T07:16:01;-1.90;99.90
23114;DHT22;11726;50.122;8.832;2023-12-04T07:18:29;-1.90;99.90
23114;DHT22;11726;50.122;8.832;2023-12-04T07:20:56;-1.90;99.90
23114;DHT22;11726;50.122;8.832;2023-12-04T07:23:22;-1.90;99.90
23114;DHT22;11726;50.122;8.832;2023-12-04T07:25:53;-1.80;99.90
23114;DHT22;11726;50.122;8.832;2023-12-04T07:28:20;-1.90;99.90
23114;DHT22;11726;50.122;8.832;2023-12-04T07:30:46;-1.90;99.90
23114;DHT22;11726;50.122;8.832;2023-12-04T07:33:13;-1.80;99.90
23114;DHT22;11726;50.122;8.832;2023-12-04T07:35:40;-1.80;99.90
23114;DHT22;11726;50.122;8.832;2023-12-04T07:38:07;-1.80;99.90
23114;DHT22;11726;50.122;8.832;2023-12-04T07:40:34;-1.80;99.90
23114;DHT22;11726;50.122;8.832;2023-12-04T07:43:00;-1.90;99.90
23114;DHT22;11726;50.122;8.832;2023-12-04T07:45:27;-1.90;99.90
23114;DHT22;11726;50.122;8.832;2023-12-04T07:47:54;-1.90;99.90
23114;DHT22;11726;50.122;8.832;2023-12-04T07:50:21;-1.90;99.90
23114;DHT22;11726;50.122;8.832;2023-12-04T07:52:47;-1.80;99.90
23114;DHT22;11726;50.122;8.832;2023-12-04T07:55:15;-1.70;99.90
23114;DHT22;11726;50.122;8.832;2023-12-04T07:57:42;-1.80;99.90
23114;DHT22;11726;50.122;8.832;2023-12-04T08:00:09;-1.70;99.90
23114;DHT22;11726;50.122;8.832;2023-12-04T08:02:35;-1.70;99.90
23114;DHT22;11726;50.122;8.832;2023-12-04T08:05:02;-1.60;99.90
23114;DHT22;11726;50.122;8.832;2023-12-04T08:07:29;-1.60;99.90
23114;DHT22;11726;50.122;8.832;2023-12-04T08:09:56;-1.50;99.90
23114;DHT22;11726;50.122;8.832;2023-12-04T08:12:23;-1.40;99.90
23114;DHT22;11726;50.122;8.832;2023-12-04T08:14:49;-1.40;99.90
23114;DHT22;11726;50.122;8.832;2023-12-04T08:17:16;-1.40;99.90
23114;DHT22;11726;50.122;8.832;2023-12-04T08:19:44;-1.50;99.90
23114;DHT22;11726;50.122;8.832;2023-12-04T08:22:11;-1.40;99.90
23114;DHT22;11726;50.122;8.832;2023-12-04T08:24:37;-1.30;99.90
23114;DHT22;11726;50.122;8.832;2023-12-04T08:27:04;-1.20;99.90
23114;DHT22;11726;50.122;8.832;2023-12-04T08:29:31;-1.20;99.90
23114;DHT22;11726;50.122;8.832;2023-12-04T08:31:58;-1.30;99.90
23114;DHT22;11726;50.122;8.832;2023-12-04T08:34:25;-1.10;99.90
23114;DHT22;11726;50.122;8.832;2023-12-04T08:36:52;-1.10;99.90
23114;DHT22;11726;50.122;8.832;2023-12-04T08:39:19;-1.10;99.90
23114;DHT22;11726;50.122;8.832;2023-12-04T08:41:46;-1.00;99.90
23114;DHT22;11726;50.122;8.832;2023-12-04T08:44:27;-1.00;99.90
23114;DHT22;11726;50.122;8.832;2023-12-04T08:46:54;-1.00;99.90
23114;DHT22;11726;50.122;8.832;2023-12-04T08:49:24;-1.00;99.90
23114;DHT22;11726;50.122;8.832;2023-12-04T08:52:01;-0.90;99.90
23114;DHT22;11726;50.122;8.832;2023-12-04T08:54:28;-0.90;99.90
23114;DHT22;11726;50.122;8.832;2023-12-04T08:56:54;-0.90;99.90
23114;DHT22;11726;50.122;8.832;2023-12-04T08:59:21;-0.80;99.90
23114;DHT22;11726;50.122;8.832;2023-12-04T09:01:47;-0.80;99.90
23114;DHT22;11726;50.122;8.832;2023-12-04T09:04:15;-0.80;99.90
23114;DHT22;11726;50.122;8.832;2023-12-04T09:06:42;-0.70;99.90
23114;DHT22;11726;50.122;8.832;2023-12-04T09:09:29;-0.60;99.90
23114;DHT22;11726;50.122;8.832;2023-12-04T09:11:56;-0.60;99.90
23114;DHT22;11726;50.122;8.832;2023-12-04T09:14:23;-0.50;99.90
23114;DHT22;11726;50.122;8.832;2023-12-04T09:16:50;-0.50;99.90
23114;DHT22;11726;50.122;8.832;2023-12-04T09:19:16;-0.40;99.90
23114;DHT22;11726;50.122;8.832;2023-12-04T09:21:43;-0.40;99.90
23114;DHT22;11726;50.122;8.832;2023-12-04T09:24:10;-0.30;99.90
23114;DHT22;11726;50.122;8.832;2023-12-04T09:26:37;-0.20;99.90
23114;DHT22;11726;50.122;8.832;2023-12-04T09:29:04;-0.20;99.90
23114;DHT22;11726;50.122;8.832;2023-12-04T09:31:30;-0.10;99.90
23114;DHT22;11726;50.122;8.832;2023-12-04T09:33:57;-0.20;99.90
23114;DHT22;11726;50.122;8.832;2023-12-04T09:36:25;-0.10;99.90
23114;DHT22;11726;50.122;8.832;2023-12-04T09:38:51;0.00;99.90
23114;DHT22;11726;50.122;8.832;2023-12-04T09:41:20;0.00;99.90
23114;DHT22;11726;50.122;8.832;2023-12-04T09:43:47;0.00;99.90
23114;DHT22;11726;50.122;8.832;2023-12-04T09:46:15;-0.10;99.90
23114;DHT22;11726;50.122;8.832;2023-12-04T09:48:43;0.00;99.90
23114;DHT22;11726;50.122;8.832;2023-12-04T09:51:10;0.00;99.90
23114;DHT22;11726;50.122;8.832;2023-12-04T09:53:39;0.00;99.90
23114;DHT22;11726;50.122;8.832;2023-12-04T09:56:07;0.10;99.90
23114;DHT22;11726;50.122;8.832;2023-12-04T09:58:40;0.10;99.90
23114;DHT22;11726;50.122;8.832;2023-12-04T10:01:07;0.00;99.90
23114;DHT22;11726;50.122;8.832;2023-12-04T10:03:35;0.10;99.90
23114;DHT22;11726;50.122;8.832;2023-12-04T10:06:03;0.10;99.90
23114;DHT22;11726;50.122;8.832;2023-12-04T10:08:31;0.10;99.90
23114;DHT22;11726;50.122;8.832;2023-12-04T10:10:58;0.10;99.90
23114;DHT22;11726;50.122;8.832;2023-12-04T10:13:26;0.00;99.90
23114;DHT22;11726;50.122;8.832;2023-12-04T10:16:12;0.10;99.90
23114;DHT22;11726;50.122;8.832;2023-12-04T10:18:39;0.10;99.90
23114;DHT22;11726;50.122;8.832;2023-12-04T10:21:06;0.10;99.90
23114;DHT22;11726;50.122;8.832;2023-12-04T10:23:42;0.00;99.90
23114;DHT22;11726;50.122;8.832;2023-12-04T10:26:09;0.10;99.90
23114;DHT22;11726;50.122;8.832;2023-12-04T10:28:58;0.10;99.90
23114;DHT22;11726;50.122;8.832;2023-12-04T10:31:26;0.20;99.90
23114;DHT22;11726;50.122;8.832;2023-12-04T10:33:53;0.20;99.90
23114;DHT22;11726;50.122;8.832;2023-12-04T10:36:21;0.10;99.90
23114;DHT22;11726;50.122;8.832;2023-12-04T10:38:58;0.20;99.90
23114;DHT22;11726;50.122;8.832;2023-12-04T10:41:26;0.20;99.90
23114;DHT22;11726;50.122;8.832;2023-12-04T10:43:56;0.20;99.90
23114;DHT22;11726;50.122;8.832;2023-12-04T10:46:33;0.20;99.90
23114;DHT22;11726;50.122;8.832;2023-12-04T10:49:03;0.30;99.90
23114;DHT22;11726;50.122;8.832;2023-12-04T10:51:32;0.30;99.90
23114;DHT22;11726;50.122;8.832;2023-12-04T10:54:01;0.20;99.90
23114;DHT22;11726;50.122;8.832;2023-12-04T10:56:38;0.30;99.90
23114;DHT22;11726;50.122;8.832;2023-12-04T10:59:15;0.30;99.90
23114;DHT22;11726;50.122;8.832;2023-12-04T11:01:46;0.40;99.90
23114;DHT22;11726;50.122;8.832;2023-12-04T11:04:17;0.40;99.90
23114;DHT22;11726;50.122;8.832;2023-12-04T11:06:51;0.40;99.90
23114;DHT22;11726;50.122;8.832;2023-12-04T11:09:20;0.50;99.90
23114;DHT22;11726;50.122;8.832;2023-12-04T11:11:51;0.40;99.90
23114;DHT22;11726;50.122;8.832;2023-12-04T11:14:22;0.50;99.90
23114;DHT22;11726;50.122;8.832;2023-12-04T11:16:51;0.60;99.90
23114;DHT22;11726;50.122;8.832;2023-12-04T11:19:35;0.70;99.90
23114;DHT22;11726;50.122;8.832;2023-12-04T11:22:07;0.70;99.90
23114;DHT22;11726;50.122;8.832;2023-12-04T11:24:35;0.70;99.90
23114;DHT22;11726;50.122;8.832;2023-12-04T11:27:03;0.80;99.90
23114;DHT22;11726;50.122;8.832;2023-12-04T11:29:32;0.80;99.90
23114;DHT22;11726;50.122;8.832;2023-12-04T11:31:59;0.90;99.90
23114;DHT22;11726;50.122;8.832;2023-12-04T11:34:25;0.90;99.90
23114;DHT22;11726;50.122;8.832;2023-12-04T11:36:52;0.90;99.90
23114;DHT22;11726;50.122;8.832;2023-12-04T11:39:19;0.90;99.90
23114;DHT22;11726;50.122;8.832;2023-12-04T11:41:46;0.90;99.90
23114;DHT22;11726;50.122;8.832;2023-12-04T11:44:13;0.80;99.90
23114;DHT22;11726;50.122;8.832;2023-12-04T11:46:55;0.80;99.90
23114;DHT22;11726;50.122;8.832;2023-12-04T11:49:26;0.70;99.90
23114;DHT22;11726;50.122;8.832;2023-12-04T11:51:59;0.70;99.90
23114;DHT22;11726;50.122;8.832;2023-12-04T11:54:27;0.70;99.90
23114;DHT22;11726;50.122;8.832;2023-12-04T11:57:19;0.70;99.90
23114;DHT22;11726;50.122;8.832;2023-12-04T11:59:51;0.70;99.90
23114;DHT22;11726;50.122;8.832;2023-12-04T12:02:18;0.70;99.90
23114;DHT22;11726;50.122;8.832;2023-12-04T12:04:45;0.70;99.90
23114;DHT22;11726;50.122;8.832;2023-12-04T12:07:12;0.60;99.90
23114;DHT22;11726;50.122;8.832;2023-12-04T12:09:39;0.70;99.90
23114;DHT22;11726;50.122;8.832;2023-12-04T12:12:06;0.70;99.90
23114;DHT22;11726;50.122;8.832;2023-12-04T12:14:33;0.70;99.90
23114;DHT22;11726;50.122;8.832;2023-12-04T12:17:00;0.70;99.90
23114;DHT22;11726;50.122;8.832;2023-12-04T12:19:28;0.60;99.90
23114;DHT22;11726;50.122;8.832;2023-12-04T12:21:55;0.60;99.90
23114;DHT22;11726;50.122;8.832;2023-12-04T12:24:23;0.60;99.90
23114;DHT22;11726;50.122;8.832;2023-12-04T12:26:50;0.50;99.90
23114;DHT22;11726;50.122;8.832;2023-12-04T12:29:17;0.40;99.90
23114;DHT22;11726;50.122;8.832;2023-12-04T12:31:44;0.30;99.90
23114;DHT22;11726;50.122;8.832;2023-12-04T12:34:14;0.30;99.90
23114;DHT22;11726;50.122;8.832;2023-12-04T12:36:40;0.20;99.90
23114;DHT22;11726;50.122;8.832;2023-12-04T12:39:07;0.10;99.90
23114;DHT22;11726;50.122;8.832;2023-12-04T12:41:35;0.00;99.90
23114;DHT22;11726;50.122;8.832;2023-12-04T12:44:02;-0.10;99.90
23114;DHT22;11726;50.122;8.832;2023-12-04T12:46:30;-0.20;99.90
23114;DHT22;11726;50.122;8.832;2023-12-04T12:48:57;-0.30;99.90
23114;DHT22;11726;50.122;8.832;2023-12-04T12:51:25;-0.30;99.90
23114;DHT22;11726;50.122;8.832;2023-12-04T12:53:52;-0.20;99.90
23114;DHT22;11726;50.122;8.832;2023-12-04T12:56:19;-0.30;99.90
23114;DHT22;11726;50.122;8.832;2023-12-04T12:58:48;-0.20;99.90
23114;DHT22;11726;50.122;8.832;2023-12-04T13:01:14;-0.30;99.90
23114;DHT22;11726;50.122;8.832;2023-12-04T13:03:45;-0.30;99.90
23114;DHT22;11726;50.122;8.832;2023-12-04T13:06:13;-0.20;99.90
23114;DHT22;11726;50.122;8.832;2023-12-04T13:08:40;-0.30;99.90
23114;DHT22;11726;50.122;8.832;2023-12-04T13:11:07;-0.30;99.90
23114;DHT22;11726;50.122;8.832;2023-12-04T13:13:35;-0.30;99.90
23114;DHT22;11726;50.122;8.832;2023-12-04T13:16:01;-0.30;99.90
23114;DHT22;11726;50.122;8.832;2023-12-04T13:18:28;-0.30;99.90
23114;DHT22;11726;50.122;8.832;2023-12-04T13:20:58;-0.30;99.90
23114;DHT22;11726;50.122;8.832;2023-12-04T13:23:25;-0.20;99.90
23114;DHT22;11726;50.122;8.832;2023-12-04T13:25:51;-0.30;99.90
23114;DHT22;11726;50.122;8.832;2023-12-04T13:28:18;-0.30;99.90
23114;DHT22;11726;50.122;8.832;2023-12-04T13:30:57;-0.20;99.90
23114;DHT22;11726;50.122;8.832;2023-12-04T13:33:24;-0.30;99.90
23114;DHT22;11726;50.122;8.832;2023-12-04T13:35:52;-0.30;99.90
23114;DHT22;11726;50.122;8.832;2023-12-04T13:38:19;-0.30;99.90
23114;DHT22;11726;50.122;8.832;2023-12-04T13:40:55;-0.20;99.90
23114;DHT22;11726;50.122;8.832;2023-12-04T13:43:45;-0.20;99.90
23114;DHT22;11726;50.122;8.832;2023-12-04T13:46:19;-0.20;99.90
23114;DHT22;11726;50.122;8.832;2023-12-04T13:48:46;-0.30;99.90
23114;DHT22;11726;50.122;8.832;2023-12-04T13:51:13;-0.30;99.90
23114;DHT22;11726;50.122;8.832;2023-12-04T13:53:40;-0.20;99.90
23114;DHT22;11726;50.122;8.832;2023-12-04T13:56:11;-0.20;99.90
23114;DHT22;11726;50.122;8.832;2023-12-04T13:58:48;-0.20;99.90
23114;DHT22;11726;50.122;8.832;2023-12-04T14:01:24;-0.20;99.90
23114;DHT22;11726;50.122;8.832;2023-12-04T14:03:54;-0.20;99.90
23114;DHT22;11726;50.122;8.832;2023-12-04T14:06:23;-0.20;99.90
23114;DHT22;11726;50.122;8.832;2023-12-04T14:08:50;-0.30;99.90
23114;DHT22;11726;50.122;8.832;2023-12-04T14:11:18;-0.20;99.90
23114;DHT22;11726;50.122;8.832;2023-12-04T14:13:44;-0.20;99.90
23114;DHT22;11726;50.122;8.832;2023-12-04T14:16:11;-0.10;99.90
23114;DHT22;11726;50.122;8.832;2023-12-04T14:18:38;-0.20;99.90
23114;DHT22;11726;50.122;8.832;2023-12-04T14:21:05;-0.10;99.90
23114;DHT22;11726;50.122;8.832;2023-12-04T14:23:31;-0.10;99.90
23114;DHT22;11726;50.122;8.832;2023-12-04T14:25:58;-0.10;99.90
23114;DHT22;11726;50.122;8.832;2023-12-04T14:28:25;-0.10;99.90
23114;DHT22;11726;50.122;8.832;2023-12-04T14:31:01;-0.10;99.90
23114;DHT22;11726;50.122;8.832;2023-12-04T14:33:28;-0.20;99.90
23114;DHT22;11726;50.122;8.832;2023-12-04T14:35:54;-0.20;99.90
23114;DHT22;11726;50.122;8.832;2023-12-04T14:38:22;-0.20;99.90
23114;DHT22;11726;50.122;8.832;2023-12-04T14:40:49;-0.10;99.90
23114;DHT22;11726;50.122;8.832;2023-12-04T14:43:16;-0.10;99.90
23114;DHT22;11726;50.122;8.832;2023-12-04T14:45:43;-0.10;99.90
23114;DHT22;11726;50.122;8.832;2023-12-04T14:48:09;-0.10;99.90
23114;DHT22;11726;50.122;8.832;2023-12-04T14:50:37;0.00;99.90
23114;DHT22;11726;50.122;8.832;2023-12-04T14:53:05;0.00;99.90
23114;DHT22;11726;50.122;8.832;2023-12-04T14:55:43;0.00;99.90
23114;DHT22;11726;50.122;8.832;2023-12-04T14:58:29;0.00;99.90
23114;DHT22;11726;50.122;8.832;2023-12-04T15:01:12;0.00;99.90
23114;DHT22;11726;50.122;8.832;2023-12-04T15:03:45;0.00;99.90
23114;DHT22;11726;50.122;8.832;2023-12-04T15:06:30;0.00;99.90
23114;DHT22;11726;50.122;8.832;2023-12-04T15:09:23;-0.10;99.90
23114;DHT22;11726;50.122;8.832;2023-12-04T15:12:12;0.00;99.90
23114;DHT22;11726;50.122;8.832;2023-12-04T15:15:13;-0.10;99.90
23114;DHT22;11726;50.122;8.832;2023-12-04T15:17:55;0.00;99.90
23114;DHT22;11726;50.122;8.832;2023-12-04T15:20:44;0.00;99.90
23114;DHT22;11726;50.122;8.832;2023-12-04T15:23:11;0.00;99.90
23114;DHT22;11726;50.122;8.832;2023-12-04T15:25:38;0.00;99.90
23114;DHT22;11726;50.122;8.832;2023-12-04T15:28:06;0.00;99.90
23114;DHT22;11726;50.122;8.832;2023-12-04T15:30:34;0.00;99.90
23114;DHT22;11726;50.122;8.832;2023-12-04T15:33:01;0.00;99.90
23114;DHT22;11726;50.122;8.832;2023-12-04T15:35:29;0.00;99.90
23114;DHT22;11726;50.122;8.832;2023-12-04T15:37:55;0.00;99.90
23114;DHT22;11726;50.122;8.832;2023-12-04T15:40:22;0.00;99.90
23114;DHT22;11726;50.122;8.832;2023-12-04T15:42:49;0.10;99.90